sensor_id;sensor_type;location;lat;lon;timestamp;pressure;altitude;pressure_sealevel;temperature;humidity
16100;BME280;8154;50.830;12.082;2023-04-23T00:38:33;98623.53;;;24.58;34.76
16100;BME280;8154;50.830;12.082;2023-04-23T00:40:59;98616.06;;;24.60;34.68
16100;BME280;8154;50.830;12.082;2023-04-23T00:43:25;98615.28;;;24.60;34.68
16100;BME280;8154;50.830;12.082;2023-04-23T00:45:52;98609.94;;;24.60;34.81
16100;BME280;8154;50.830;12.082;2023-04-23T00:48:19;98607.50;;;24.58;34.41
16100;BME280;8154;50.830;12.082;2023-04-23T00:50:46;98613.41;;;24.60;34.76
16100;BME280;8154;50.830;12.082;2023-04-23T00:53:12;98602.16;;;24.58;34.47
16100;BME280;8154;50.830;12.082;2023-04-23T00:55:39;98601.09;;;24.59;34.56
16100;BME280;8154;50.830;12.082;2023-04-23T00:58:05;98602.16;;;24.58;34.48
16100;BME280;8154;50.830;12.082;2023-04-23T01:00:34;98602.16;;;24.58;34.71
16100;BME280;8154;50.830;12.082;2023-04-23T01:03:05;98604.59;;;24.60;34.72
16100;BME280;8154;50.830;12.082;2023-04-23T01:05:35;98594.13;;;24.58;34.40
16100;BME280;8154;50.830;12.082;2023-04-23T01:08:01;98591.47;;;24.58;34.59
16100;BME280;8154;50.830;12.082;2023-04-23T01:10:28;98601.94;;;24.60;34.77
16100;BME280;8154;50.830;12.082;2023-04-23T01:12:59;98595.97;;;24.58;34.76
16100;BME280;8154;50.830;12.082;2023-04-23T01:15:25;98593.53;;;24.56;34.70
16100;BME280;8154;50.830;12.082;2023-04-23T01:17:51;98592.47;;;24.57;34.85
16100;BME280;8154;50.830;12.082;2023-04-23T01:20:18;98593.91;;;24.60;34.38
16100;BME280;8154;50.830;12.082;2023-04-23T01:22:45;98586.69;;;24.60;34.56
16100;BME280;8154;50.830;12.082;2023-04-23T01:27:37;98586.13;;;24.58;34.50
16100;BME280;8154;50.830;12.082;2023-04-23T01:30:04;98576.00;;;24.60;34.45
16100;BME280;8154;50.830;12.082;2023-04-23T01:32:31;98584.84;;;24.61;34.48
16100;BME280;8154;50.830;12.082;2023-04-23T01:34:57;98584.63;;;24.62;34.34
16100;BME280;8154;50.830;12.082;2023-04-23T02:38:42;98555.31;;;24.56;34.56
16100;BME280;8154;50.830;12.082;2023-04-23T02:41:10;98558.44;;;24.53;34.40
16100;BME280;8154;50.830;12.082;2023-04-23T02:43:37;98561.09;;;24.53;34.55
16100;BME280;8154;50.830;12.082;2023-04-23T02:46:03;98553.47;;;24.56;34.66
16100;BME280;8154;50.830;12.082;2023-04-23T02:48:40;98558.19;;;24.54;34.42
16100;BME280;8154;50.830;12.082;2023-04-23T02:51:09;98558.19;;;24.54;34.78
16100;BME280;8154;50.830;12.082;2023-04-23T02:53:35;98558.19;;;24.54;34.70
16100;BME280;8154;50.830;12.082;2023-04-23T02:56:01;98557.75;;;24.57;34.54
16100;BME280;8154;50.830;12.082;2023-04-23T02:58:29;98555.91;;;24.58;34.56
16100;BME280;8154;50.830;12.082;2023-04-23T03:00:55;98551.25;;;24.53;34.73
16100;BME280;8154;50.830;12.082;2023-04-23T03:03:21;98561.69;;;24.55;34.75
16100;BME280;8154;50.830;12.082;2023-04-23T03:05:51;98556.13;;;24.56;34.61
16100;BME280;8154;50.830;12.082;2023-04-23T03:08:17;98564.16;;;24.56;34.60
16100;BME280;8154;50.830;12.082;2023-04-23T03:10:47;98568.88;;;24.54;34.68
16100;BME280;8154;50.830;12.082;2023-04-23T03:13:14;98561.91;;;24.53;34.64
16100;BME280;8154;50.830;12.082;2023-04-23T03:15:40;98558.81;;;24.56;34.43
16100;BME280;8154;50.830;12.082;2023-04-23T03:18:06;98559.81;;;24.55;34.24
16100;BME280;8154;50.830;12.082;2023-04-23T03:20:34;98557.38;;;24.54;34.54
16100;BME280;8154;50.830;12.082;2023-04-23T03:23:14;98554.94;;;24.52;34.47
16100;BME280;8154;50.830;12.082;2023-04-23T03:25:51;98557.97;;;24.56;34.41
16100;BME280;8154;50.830;12.082;2023-04-23T03:28:17;98553.84;;;24.60;34.36
16100;BME280;8154;50.830;12.082;2023-04-23T03:30:43;98554.06;;;24.58;34.57
16100;BME280;8154;50.830;12.082;2023-04-23T03:33:09;98564.94;;;24.57;34.40
16100;BME280;8154;50.830;12.082;2023-04-23T03:35:35;98561.91;;;24.53;34.38
16100;BME280;8154;50.830;12.082;2023-04-23T03:38:01;98570.97;;;24.52;34.37
16100;BME280;8154;50.830;12.082;2023-04-23T03:40:28;98563.53;;;24.54;34.59
16100;BME280;8154;50.830;12.082;2023-04-23T03:42:54;98554.47;;;24.55;34.68
16100;BME280;8154;50.830;12.082;2023-04-23T03:45:20;98559.69;;;24.50;34.33
16100;BME280;8154;50.830;12.082;2023-04-23T03:47:46;98564.00;;;24.51;34.46
16100;BME280;8154;50.830;12.082;2023-04-23T03:50:12;98553.91;;;24.53;34.40
16100;BME280;8154;50.830;12.082;2023-04-23T03:52:39;98559.81;;;24.55;34.73
16100;BME280;8154;50.830;12.082;2023-04-23T03:55:06;98557.59;;;24.52;34.68
16100;BME280;8154;50.830;12.082;2023-04-23T03:57:32;98559.47;;;24.52;34.33
16100;BME280;8154;50.830;12.082;2023-04-23T03:59:58;98563.75;;;24.53;34.32
16100;BME280;8154;50.830;12.082;2023-04-23T04:02:25;98568.88;;;24.54;34.55
16100;BME280;8154;50.830;12.082;2023-04-23T04:04:52;98569.34;;;24.51;34.64
16100;BME280;8154;50.830;12.082;2023-04-23T04:07:19;98572.22;;;24.50;34.73
16100;BME280;8154;50.830;12.082;2023-04-23T04:09:46;98568.50;;;24.51;34.37
16100;BME280;8154;50.830;12.082;2023-04-23T04:12:14;98569.94;;;24.53;34.79
16100;BME280;8154;50.830;12.082;2023-04-23T04:14:41;98574.69;;;24.51;34.47
16100;BME280;8154;50.830;12.082;2023-04-23T04:17:07;98573.84;;;24.51;34.60
16100;BME280;8154;50.830;12.082;2023-04-23T04:19:34;98568.28;;;24.52;34.73
16100;BME280;8154;50.830;12.082;2023-04-23T04:22:00;98576.91;;;24.54;34.42
16100;BME280;8154;50.830;12.082;2023-04-23T04:24:29;98567.72;;;24.50;34.59
16100;BME280;8154;50.830;12.082;2023-04-23T04:26:58;98575.13;;;24.48;34.42
16100;BME280;8154;50.830;12.082;2023-04-23T04:29:25;98578.63;;;24.49;34.81
16100;BME280;8154;50.830;12.082;2023-04-23T04:31:52;98576.53;;;24.51;34.39
16100;BME280;8154;50.830;12.082;2023-04-23T04:34:19;98582.09;;;24.49;34.43
16100;BME280;8154;50.830;12.082;2023-04-23T04:36:45;98580.47;;;24.48;34.41
16100;BME280;8154;50.830;12.082;2023-04-23T05:40:31;98623.66;;;24.45;34.63
16100;BME280;8154;50.830;12.082;2023-04-23T05:42:58;98623.66;;;24.45;34.65
16100;BME280;8154;50.830;12.082;2023-04-23T05:45:24;98628.59;;;24.42;34.73
16100;BME280;8154;50.830;12.082;2023-04-23T05:47:51;98633.16;;;24.41;34.60
16100;BME280;8154;50.830;12.082;2023-04-23T05:50:17;98624.91;;;24.43;34.72
16100;BME280;8154;50.830;12.082;2023-04-23T05:52:44;98629.59;;;24.47;34.57
16100;BME280;8154;50.830;12.082;2023-04-23T05:55:10;98637.22;;;24.44;34.49
16100;BME280;8154;50.830;12.082;2023-04-23T05:57:37;98641.75;;;24.43;34.79
16100;BME280;8154;50.830;12.082;2023-04-23T06:00:04;98647.91;;;24.44;34.46
16100;BME280;8154;50.830;12.082;2023-04-23T06:02:31;98645.00;;;24.45;34.31
16100;BME280;8154;50.830;12.082;2023-04-23T06:04:58;98648.28;;;24.47;34.73
16100;BME280;8154;50.830;12.082;2023-04-23T06:07:24;98648.28;;;24.47;34.33
16100;BME280;8154;50.830;12.082;2023-04-23T06:09:50;98649.53;;;24.45;34.44
16100;BME280;8154;50.830;12.082;2023-04-23T06:12:17;98644.19;;;24.45;34.53
16100;BME280;8154;50.830;12.082;2023-04-23T06:14:43;98651.19;;;24.46;34.36
16100;BME280;8154;50.830;12.082;2023-04-23T06:17:09;98651.97;;;24.46;34.49
16100;BME280;8154;50.830;12.082;2023-04-23T06:19:35;98650.56;;;24.44;34.53
16100;BME280;8154;50.830;12.082;2023-04-23T06:22:02;98647.91;;;24.44;34.72
16100;BME280;8154;50.830;12.082;2023-04-23T06:24:28;98650.56;;;24.44;34.42
16100;BME280;8154;50.830;12.082;2023-04-23T06:26:55;98650.13;;;24.47;34.61
16100;BME280;8154;50.830;12.082;2023-04-23T06:29:22;98651.97;;;24.46;34.39
16100;BME280;8154;50.830;12.082;2023-04-23T06:31:49;98657.09;;;24.48;34.77
16100;BME280;8154;50.830;12.082;2023-04-23T06:34:15;98659.19;;;24.46;34.77
16100;BME280;8154;50.830;12.082;2023-04-23T06:36:41;98664.53;;;24.46;34.72
16100;BME280;8154;50.830;12.082;2023-04-23T06:39:08;98664.75;;;24.44;34.64
16100;BME280;8154;50.830;12.082;2023-04-23T06:41:36;98669.06;;;24.45;34.75
16100;BME280;8154;50.830;12.082;2023-04-23T06:44:02;98668.00;;;24.46;34.67
16100;BME280;8154;50.830;12.082;2023-04-23T06:46:28;98667.22;;;24.46;34.73
16100;BME280;8154;50.830;12.082;2023-04-23T06:48:56;98660.44;;;24.43;34.44
16100;BME280;8154;50.830;12.082;2023-04-23T06:51:26;98647.53;;;24.40;34.67
16100;BME280;8154;50.830;12.082;2023-04-23T06:53:53;98647.53;;;24.40;34.52
16100;BME280;8154;50.830;12.082;2023-04-23T06:56:19;98654.53;;;24.41;34.84
16100;BME280;8154;50.830;12.082;2023-04-23T06:58:46;98649.97;;;24.42;34.58
16100;BME280;8154;50.830;12.082;2023-04-23T07:01:12;98648.13;;;24.42;34.57
16100;BME280;8154;50.830;12.082;2023-04-23T07:03:39;98641.97;;;24.42;34.55
16100;BME280;8154;50.830;12.082;2023-04-23T07:06:09;98650.81;;;24.42;34.64
16100;BME280;8154;50.830;12.082;2023-04-23T07:08:36;98643.84;;;24.41;34.92
16100;BME280;8154;50.830;12.082;2023-04-23T07:11:04;98645.47;;;24.42;34.79
16100;BME280;8154;50.830;12.082;2023-04-23T07:13:30;98651.41;;;24.44;34.47
16100;BME280;8154;50.830;12.082;2023-04-23T07:15:56;98648.72;;;24.44;34.79
16100;BME280;8154;50.830;12.082;2023-04-23T07:18:22;98650.81;;;24.42;34.74
16100;BME280;8154;50.830;12.082;2023-04-23T07:20:49;98660.00;;;24.46;34.63
16100;BME280;8154;50.830;12.082;2023-04-23T07:23:15;98660.00;;;24.46;34.81
16100;BME280;8154;50.830;12.082;2023-04-23T07:25:41;98652.19;;;24.45;34.64
16100;BME280;8154;50.830;12.082;2023-04-23T07:28:08;98648.97;;;24.43;34.79
16100;BME280;8154;50.830;12.082;2023-04-23T07:30:34;98650.34;;;24.45;34.59
16100;BME280;8154;50.830;12.082;2023-04-23T07:33:00;98651.97;;;24.46;34.51
16100;BME280;8154;50.830;12.082;2023-04-23T07:35:36;98656.75;;;24.44;34.80
16100;BME280;8154;50.830;12.082;2023-04-23T07:38:02;98652.44;;;24.43;34.86
16100;BME280;8154;50.830;12.082;2023-04-23T07:40:29;98662.09;;;24.44;34.54
16100;BME280;8154;50.830;12.082;2023-04-23T07:42:56;98666.59;;;24.44;34.58
16100;BME280;8154;50.830;12.082;2023-04-23T07:45:24;98665.34;;;24.46;34.73
16100;BME280;8154;50.830;12.082;2023-04-23T07:47:58;98677.28;;;24.44;34.63
16100;BME280;8154;50.830;12.082;2023-04-23T07:50:24;98686.13;;;24.44;34.92
16100;BME280;8154;50.830;12.082;2023-04-23T07:52:52;98695.75;;;24.45;34.57
16100;BME280;8154;50.830;12.082;2023-04-23T07:55:18;98709.13;;;24.45;34.80
16100;BME280;8154;50.830;12.082;2023-04-23T07:57:46;98733.16;;;24.45;34.54
16100;BME280;8154;50.830;12.082;2023-04-23T08:00:12;98726.78;;;24.46;34.83
16100;BME280;8154;50.830;12.082;2023-04-23T08:02:39;98732.09;;;24.46;34.76
16100;BME280;8154;50.830;12.082;2023-04-23T08:05:05;98737.47;;;24.46;34.72
16100;BME280;8154;50.830;12.082;2023-04-23T08:07:32;98737.69;;;24.45;34.46
16100;BME280;8154;50.830;12.082;2023-04-23T08:09:59;98734.78;;;24.46;34.68
16100;BME280;8154;50.830;12.082;2023-04-23T08:12:29;98743.63;;;24.47;34.67
16100;BME280;8154;50.830;12.082;2023-04-23T08:14:56;98744.44;;;24.47;34.83
16100;BME280;8154;50.830;12.082;2023-04-23T08:17:23;98753.03;;;24.49;34.47
16100;BME280;8154;50.830;12.082;2023-04-23T08:19:49;98752.69;;;24.46;34.45
16100;BME280;8154;50.830;12.082;2023-04-23T08:22:16;98755.78;;;24.43;34.65
16100;BME280;8154;50.830;12.082;2023-04-23T08:24:43;98769.16;;;24.43;34.61
16100;BME280;8154;50.830;12.082;2023-04-23T08:27:10;98759.66;;;24.47;34.45
16100;BME280;8154;50.830;12.082;2023-04-23T08:29:37;98765.44;;;24.44;34.59
16100;BME280;8154;50.830;12.082;2023-04-23T08:32:03;98766.69;;;24.41;34.65
16100;BME280;8154;50.830;12.082;2023-04-23T08:34:29;98769.38;;;24.41;34.44
16100;BME280;8154;50.830;12.082;2023-04-23T08:36:55;98769.16;;;24.43;34.76
16100;BME280;8154;50.830;12.082;2023-04-23T08:39:21;98784.34;;;24.42;34.89
16100;BME280;8154;50.830;12.082;2023-04-23T08:41:53;98782.34;;;24.38;34.62
16100;BME280;8154;50.830;12.082;2023-04-23T08:44:23;98780.28;;;24.40;34.51
16100;BME280;8154;50.830;12.082;2023-04-23T08:46:52;98774.50;;;24.43;34.94
16100;BME280;8154;50.830;12.082;2023-04-23T08:49:19;98768.75;;;24.39;34.86
16100;BME280;8154;50.830;12.082;2023-04-23T08:52:15;98773.28;;;24.39;34.72
16100;BME280;8154;50.830;12.082;2023-04-23T08:54:47;98770.59;;;24.39;34.73
16100;BME280;8154;50.830;12.082;2023-04-23T08:57:15;98779.00;;;24.42;34.79
16100;BME280;8154;50.830;12.082;2023-04-23T08:59:43;98773.28;;;24.39;34.56
16100;BME280;8154;50.830;12.082;2023-04-23T09:02:09;98770.59;;;24.39;34.79
16100;BME280;8154;50.830;12.082;2023-04-23T09:04:37;98769.19;;;24.36;34.91
16100;BME280;8154;50.830;12.082;2023-04-23T09:07:05;98776.16;;;24.37;34.51
16100;BME280;8154;50.830;12.082;2023-04-23T09:09:37;98772.09;;;24.35;34.70
16100;BME280;8154;50.830;12.082;2023-04-23T09:12:05;98767.53;;;24.35;34.77
16100;BME280;8154;50.830;12.082;2023-04-23T09:14:35;98765.91;;;24.34;34.69
16100;BME280;8154;50.830;12.082;2023-04-23T09:17:02;98765.69;;;24.36;34.72
16100;BME280;8154;50.830;12.082;2023-04-23T09:19:28;98761.97;;;24.37;34.89
16100;BME280;8154;50.830;12.082;2023-04-23T09:21:57;98763.84;;;24.36;34.67
16100;BME280;8154;50.830;12.082;2023-04-23T09:24:24;98762.19;;;24.35;34.73
16100;BME280;8154;50.830;12.082;2023-04-23T09:26:51;98761.41;;;24.35;35.13
16100;BME280;8154;50.830;12.082;2023-04-23T09:29:21;98755.22;;;24.34;34.81
16100;BME280;8154;50.830;12.082;2023-04-23T09:31:54;98753.38;;;24.35;34.72
16100;BME280;8154;50.830;12.082;2023-04-23T09:34:22;98756.84;;;24.35;34.96
16100;BME280;8154;50.830;12.082;2023-04-23T09:36:50;98745.75;;;24.38;34.77
16100;BME280;8154;50.830;12.082;2023-04-23T09:39:18;98740.41;;;24.38;34.92
16100;BME280;8154;50.830;12.082;2023-04-23T13:43:57;98499.31;;;24.67;35.16
16100;BME280;8154;50.830;12.082;2023-04-23T13:46:23;98503.81;;;24.67;34.93
16100;BME280;8154;50.830;12.082;2023-04-23T13:48:51;98491.28;;;24.67;35.27
16100;BME280;8154;50.830;12.082;2023-04-23T13:51:18;98492.31;;;24.66;35.12
16100;BME280;8154;50.830;12.082;2023-04-23T13:53:44;98489.25;;;24.63;35.05
16100;BME280;8154;50.830;12.082;2023-04-23T13:56:11;98492.50;;;24.65;35.06
16100;BME280;8154;50.830;12.082;2023-04-23T13:58:38;98490.66;;;24.65;35.17
16100;BME280;8154;50.830;12.082;2023-04-23T14:01:08;98483.69;;;24.64;34.93
16100;BME280;8154;50.830;12.082;2023-04-23T14:03:37;98488.00;;;24.65;35.33
16100;BME280;8154;50.830;12.082;2023-04-23T14:06:04;98478.34;;;24.64;34.90
16100;BME280;8154;50.830;12.082;2023-04-23T14:08:31;98478.16;;;24.66;35.22
16100;BME280;8154;50.830;12.082;2023-04-23T14:10:57;98475.69;;;24.64;35.05
16100;BME280;8154;50.830;12.082;2023-04-23T14:13:23;98469.75;;;24.62;35.09
16100;BME280;8154;50.830;12.082;2023-04-23T14:15:49;98468.47;;;24.65;34.92
16100;BME280;8154;50.830;12.082;2023-04-23T14:18:15;98467.25;;;24.67;35.34
16100;BME280;8154;50.830;12.082;2023-04-23T14:20:42;98457.56;;;24.66;35.00
16100;BME280;8154;50.830;12.082;2023-04-23T14:26:03;98449.56;;;24.66;34.93
16100;BME280;8154;50.830;12.082;2023-04-23T14:28:43;98439.06;;;24.65;35.23
16100;BME280;8154;50.830;12.082;2023-04-23T14:31:10;98439.69;;;24.67;34.99
16100;BME280;8154;50.830;12.082;2023-04-23T14:33:36;98439.47;;;24.68;34.92
16100;BME280;8154;50.830;12.082;2023-04-23T14:36:03;98436.19;;;24.66;34.98
16100;BME280;8154;50.830;12.082;2023-04-23T14:38:29;98438.28;;;24.64;35.09
16100;BME280;8154;50.830;12.082;2023-04-23T14:40:55;98422.84;;;24.66;34.94
16100;BME280;8154;50.830;12.082;2023-04-23T15:44:51;98363.94;;;24.61;35.57
16100;BME280;8154;50.830;12.082;2023-04-23T15:47:20;98366.22;;;24.58;35.98
16100;BME280;8154;50.830;12.082;2023-04-23T15:49:47;98363.34;;;24.59;35.93
16100;BME280;8154;50.830;12.082;2023-04-23T15:52:14;98360.06;;;24.57;36.18
16100;BME280;8154;50.830;12.082;2023-04-23T15:54:40;98358.81;;;24.60;35.73
16100;BME280;8154;50.830;12.082;2023-04-23T16:04:44;98345.97;;;24.68;35.44
16100;BME280;8154;50.830;12.082;2023-04-23T16:07:10;98343.13;;;24.63;35.45
16100;BME280;8154;50.830;12.082;2023-04-23T16:09:36;98340.44;;;24.63;35.84
16100;BME280;8154;50.830;12.082;2023-04-23T16:12:06;98332.22;;;24.65;35.53
16100;BME280;8154;50.830;12.082;2023-04-23T16:14:32;98344.78;;;24.64;35.63
16100;BME280;8154;50.830;12.082;2023-04-23T16:16:58;98340.69;;;24.62;35.53
16100;BME280;8154;50.830;12.082;2023-04-23T16:19:26;98334.88;;;24.65;35.87
16100;BME280;8154;50.830;12.082;2023-04-23T16:21:53;98332.44;;;24.63;35.53
16100;BME280;8154;50.830;12.082;2023-04-23T16:24:22;98336.16;;;24.62;35.52
16100;BME280;8154;50.830;12.082;2023-04-23T16:26:49;98336.16;;;24.62;35.37
16100;BME280;8154;50.830;12.082;2023-04-23T16:29:15;98333.25;;;24.64;35.81
16100;BME280;8154;50.830;12.082;2023-04-23T16:31:46;98325.25;;;24.64;35.78
16100;BME280;8154;50.830;12.082;2023-04-23T16:34:15;98324.19;;;24.65;35.70
16100;BME280;8154;50.830;12.082;2023-04-23T16:36:43;98324.66;;;24.62;35.59
16100;BME280;8154;50.830;12.082;2023-04-23T16:39:09;98320.97;;;24.63;35.32
16100;BME280;8154;50.830;12.082;2023-04-23T16:41:35;98308.97;;;24.65;35.33
16100;BME280;8154;50.830;12.082;2023-04-23T18:46:41;98268.22;;;24.58;35.33
16100;BME280;8154;50.830;12.082;2023-04-23T18:49:42;98267.53;;;24.63;35.10
16100;BME280;8154;50.830;12.082;2023-04-23T18:52:09;98267.53;;;24.63;35.22
16100;BME280;8154;50.830;12.082;2023-04-23T18:54:35;98271.44;;;24.60;35.25
16100;BME280;8154;50.830;12.082;2023-04-23T18:57:01;98263.44;;;24.60;35.13
16100;BME280;8154;50.830;12.082;2023-04-23T18:59:28;98262.41;;;24.61;35.10
16100;BME280;8154;50.830;12.082;2023-04-23T19:01:59;98271.00;;;24.63;35.00
16100;BME280;8154;50.830;12.082;2023-04-23T19:04:25;98275.78;;;24.61;35.39
16100;BME280;8154;50.830;12.082;2023-04-23T19:06:51;98274.13;;;24.60;35.50
16100;BME280;8154;50.830;12.082;2023-04-23T19:09:17;98274.13;;;24.60;35.24
16100;BME280;8154;50.830;12.082;2023-04-23T19:11:45;98274.94;;;24.61;35.44
16100;BME280;8154;50.830;12.082;2023-04-23T19:14:11;98269.59;;;24.61;35.43
16100;BME280;8154;50.830;12.082;2023-04-23T19:16:38;98274.13;;;24.60;35.45
16100;BME280;8154;50.830;12.082;2023-04-23T19:19:04;98279.25;;;24.62;35.14
16100;BME280;8154;50.830;12.082;2023-04-23T19:21:30;98272.88;;;24.63;35.35
16100;BME280;8154;50.830;12.082;2023-04-23T19:23:57;98273.91;;;24.62;34.99
16100;BME280;8154;50.830;12.082;2023-04-23T19:26:24;98268.00;;;24.60;35.13
16100;BME280;8154;50.830;12.082;2023-04-23T19:28:50;98274.13;;;24.60;35.29
16100;BME280;8154;50.830;12.082;2023-04-23T19:31:16;98268.31;;;24.63;35.05
16100;BME280;8154;50.830;12.082;2023-04-23T19:33:43;98262.19;;;24.63;35.29
16100;BME280;8154;50.830;12.082;2023-04-23T19:36:11;98267.16;;;24.59;35.39
16100;BME280;8154;50.830;12.082;2023-04-23T19:38:37;98254.88;;;24.58;35.04
16100;BME280;8154;50.830;12.082;2023-04-23T19:41:03;98251.97;;;24.60;35.41
16100;BME280;8154;50.830;12.082;2023-04-23T19:43:29;98249.06;;;24.61;34.95
16100;BME280;8154;50.830;12.082;2023-04-23T19:45:55;98245.22;;;24.57;35.22
16100;BME280;8154;50.830;12.082;2023-04-23T19:48:22;98245.44;;;24.56;35.45
16100;BME280;8154;50.830;12.082;2023-04-23T19:50:48;98243.94;;;24.60;35.39
16100;BME280;8154;50.830;12.082;2023-04-23T19:53:14;98250.91;;;24.61;35.10
16100;BME280;8154;50.830;12.082;2023-04-23T19:55:40;98251.13;;;24.59;35.29
16100;BME280;8154;50.830;12.082;2023-04-23T19:58:07;98240.09;;;24.56;35.26
16100;BME280;8154;50.830;12.082;2023-04-23T20:03:05;98248.47;;;24.59;35.06
16100;BME280;8154;50.830;12.082;2023-04-23T20:05:33;98248.69;;;24.58;35.17
16100;BME280;8154;50.830;12.082;2023-04-23T20:07:59;98254.28;;;24.56;35.19
16100;BME280;8154;50.830;12.082;2023-04-23T20:10:29;98258.09;;;24.60;35.04
16100;BME280;8154;50.830;12.082;2023-04-23T20:12:57;98245.34;;;24.62;34.93
16100;BME280;8154;50.830;12.082;2023-04-23T20:15:25;98243.34;;;24.58;35.39
16100;BME280;8154;50.830;12.082;2023-04-23T20:17:52;98234.75;;;24.56;35.13
16100;BME280;8154;50.830;12.082;2023-04-23T20:20:18;98236.72;;;24.60;35.13
16100;BME280;8154;50.830;12.082;2023-04-23T20:22:46;98240.81;;;24.63;35.01
16100;BME280;8154;50.830;12.082;2023-04-23T20:25:15;98250.53;;;24.57;35.23
16100;BME280;8154;50.830;12.082;2023-04-23T20:27:42;98242.16;;;24.54;35.15
16100;BME280;8154;50.830;12.082;2023-04-23T20:30:09;98238.84;;;24.58;35.18
16100;BME280;8154;50.830;12.082;2023-04-23T20:32:36;98235.47;;;24.63;35.03
16100;BME280;8154;50.830;12.082;2023-04-23T20:35:02;98234.53;;;24.57;35.15
16100;BME280;8154;50.830;12.082;2023-04-23T21:54:21;98218.72;;;24.56;34.87
16100;BME280;8154;50.830;12.082;2023-04-23T21:56:48;98239.72;;;24.52;35.34
16100;BME280;8154;50.830;12.082;2023-04-23T21:59:14;98238.94;;;24.52;35.03
16100;BME280;8154;50.830;12.082;2023-04-23T22:01:40;98236.84;;;24.54;35.06
16100;BME280;8154;50.830;12.082;2023-04-23T22:04:06;98241.38;;;24.53;35.07
16100;BME280;8154;50.830;12.082;2023-04-23T22:06:33;98252.53;;;24.50;34.93
16100;BME280;8154;50.830;12.082;2023-04-23T22:09:01;98258.66;;;24.51;35.11
16100;BME280;8154;50.830;12.082;2023-04-23T22:11:29;98255.31;;;24.55;35.01
16100;BME280;8154;50.830;12.082;2023-04-23T22:13:55;98264.97;;;24.56;35.30
16100;BME280;8154;50.830;12.082;2023-04-23T22:16:22;98267.28;;;24.53;35.19
16100;BME280;8154;50.830;12.082;2023-04-23T22:18:48;98277.94;;;24.53;35.24
16100;BME280;8154;50.830;12.082;2023-04-23T22:21:15;98275.66;;;24.56;34.93
16100;BME280;8154;50.830;12.082;2023-04-23T22:23:41;98272.97;;;24.56;35.01
16100;BME280;8154;50.830;12.082;2023-04-23T22:26:07;98271.78;;;24.52;35.33
16100;BME280;8154;50.830;12.082;2023-04-23T22:28:33;98274.47;;;24.52;34.95
16100;BME280;8154;50.830;12.082;2023-04-23T22:30:59;98279.56;;;24.54;35.04
16100;BME280;8154;50.830;12.082;2023-04-23T22:33:26;98271.09;;;24.57;34.87
16100;BME280;8154;50.830;12.082;2023-04-23T22:35:55;98276.34;;;24.52;35.21
16100;BME280;8154;50.830;12.082;2023-04-23T22:38:23;98280.84;;;24.51;35.29
16100;BME280;8154;50.830;12.082;2023-04-23T22:40:49;98276.09;;;24.53;34.99
16100;BME280;8154;50.830;12.082;2023-04-23T22:43:22;98276.44;;;24.57;34.97
16100;BME280;8154;50.830;12.082;2023-04-23T22:45:50;98275.28;;;24.53;35.27
16100;BME280;8154;50.830;12.082;2023-04-23T22:48:16;98266.91;;;24.49;35.01
16100;BME280;8154;50.830;12.082;2023-04-23T22:50:42;98269.13;;;24.52;35.37
16100;BME280;8154;50.830;12.082;2023-04-23T22:53:08;98257.19;;;24.55;34.98
